Time;durP1;ratioP1;P1;durP2;ratioP2;P2;SDS_P1;SDS_P2;PMS_P1;PMS_P2;Temp;Humidity;BMP_temperature;BMP_pressure;BME280_temperature;BME280_humidity;BME280_pressure;Samples;Min_cycle;Max_cycle;Signal;HPM_P1;HPM_P2
2023/10/26 00:01:05;;;;;;;15.32;4.13;;;;;;;;;;5054224;28;21129;-81
2023/10/26 00:03:51;;;;;;;13.27;4.38;;;;;;;;;;5052820;28;20479;-81
2023/10/26 00:06:35;;;;;;;16.60;4.97;;;;;;;;;;5058694;28;20060;-80
2023/10/26 00:09:20;;;;;;;10.40;3.17;;;;;;;;;;5052483;28;20052;-81
2023/10/26 00:12:06;;;;;;;13.43;3.60;;;;;;;;;;5058165;28;20488;-80
2023/10/26 00:14:50;;;;;;;10.88;3.25;;;;;;;;;;5051792;28;20048;-82
2023/10/26 00:17:36;;;;;;;7.45;2.85;;;;;;;;;;5057982;28;20396;-80
2023/10/26 00:20:21;;;;;;;7.78;1.95;;;;;;;;;;5043463;28;20128;-83
2023/10/26 00:23:06;;;;;;;8.52;1.70;;;;;;;;;;5059154;28;20369;-82
2023/10/26 00:25:52;;;;;;;5.28;1.60;;;;;;;;;;5051677;28;20032;-84
2023/10/26 00:28:37;;;;;;;9.43;1.85;;;;;;;;;;5043176;28;20448;-81
2023/10/26 00:31:23;;;;;;;10.35;3.35;;;;;;;;;;5029855;28;20456;-80
2023/10/26 00:34:08;;;;;;;16.83;5.78;;;;;;;;;;5051900;28;20388;-80
2023/10/26 00:36:53;;;;;;;13.02;4.60;;;;;;;;;;5036663;28;20029;-81
2023/10/26 00:39:38;;;;;;;18.52;4.90;;;;;;;;;;5043372;28;21864;-80
2023/10/26 00:42:24;;;;;;;21.67;8.05;;;;;;;;;;5050514;28;20048;-81
2023/10/26 00:45:10;;;;;;;25.83;10.60;;;;;;;;;;5058732;28;20032;-80
2023/10/26 00:47:56;;;;;;;18.13;6.70;;;;;;;;;;5057775;28;20054;-81
2023/10/26 00:50:41;;;;;;;10.27;3.20;;;;;;;;;;5048442;28;20411;-80
2023/10/26 00:53:26;;;;;;;8.90;2.30;;;;;;;;;;5058056;28;20032;-80
2023/10/26 00:56:12;;;;;;;9.27;2.10;;;;;;;;;;5049136;28;20048;-82
2023/10/26 00:58:57;;;;;;;5.40;1.77;;;;;;;;;;5038536;28;20388;-81
2023/10/26 01:01:45;;;;;;;5.35;1.67;;;;;;;;;;5046219;28;20041;-82
2023/10/26 01:04:30;;;;;;;7.78;1.70;;;;;;;;;;5048552;28;20036;-82
2023/10/26 01:07:15;;;;;;;4.18;1.30;;;;;;;;;;5050316;28;20452;-82
2023/10/26 01:10:01;;;;;;;8.57;1.70;;;;;;;;;;5034838;28;20037;-84
2023/10/26 01:12:48;;;;;;;5.13;1.67;;;;;;;;;;5041389;28;20032;-82
2023/10/26 01:15:33;;;;;;;11.45;3.92;;;;;;;;;;5040966;28;20040;-82
2023/10/26 01:18:18;;;;;;;5.35;2.85;;;;;;;;;;5044765;28;20765;-80
2023/10/26 01:21:04;;;;;;;13.80;5.40;;;;;;;;;;5054181;28;20463;-81
2023/10/26 01:23:49;;;;;;;23.80;9.55;;;;;;;;;;5057157;28;20391;-81
2023/10/26 01:26:36;;;;;;;11.02;4.75;;;;;;;;;;5050019;28;20037;-84
2023/10/26 01:29:22;;;;;;;10.02;3.58;;;;;;;;;;5049149;28;20475;-80
2023/10/26 01:32:08;;;;;;;15.80;6.85;;;;;;;;;;5048358;28;20039;-83
2023/10/26 01:34:53;;;;;;;26.00;12.32;;;;;;;;;;5040142;28;20041;-81
2023/10/26 01:37:39;;;;;;;69.50;40.28;;;;;;;;;;5039134;28;20494;-80
2023/10/26 01:40:24;;;;;;;19.38;8.52;;;;;;;;;;5039476;28;20076;-80
2023/10/26 01:43:09;;;;;;;9.10;3.25;;;;;;;;;;5040414;28;20043;-82
2023/10/26 01:45:54;;;;;;;13.25;4.22;;;;;;;;;;5048373;28;20476;-80
2023/10/26 01:48:45;;;;;;;10.25;2.60;;;;;;;;;;5039012;28;20056;-81
2023/10/26 01:51:31;;;;;;;4.40;1.77;;;;;;;;;;5039699;28;20059;-81
2023/10/26 01:54:16;;;;;;;3.55;1.40;;;;;;;;;;5055245;28;20372;-81
2023/10/26 01:57:02;;;;;;;9.10;4.57;;;;;;;;;;5040505;28;20377;-82
2023/10/26 01:59:47;;;;;;;9.68;4.07;;;;;;;;;;5034127;28;20456;-80
2023/10/26 02:02:32;;;;;;;8.57;2.70;;;;;;;;;;5039723;28;20711;-82
2023/10/26 02:05:17;;;;;;;6.70;2.75;;;;;;;;;;5039153;28;20452;-79
2023/10/26 02:08:02;;;;;;;8.02;2.25;;;;;;;;;;5040175;28;20040;-80
2023/10/26 02:10:47;;;;;;;4.93;1.48;;;;;;;;;;5039617;28;20044;-81
2023/10/26 02:13:31;;;;;;;2.05;1.08;;;;;;;;;;5047669;28;20044;-81
2023/10/26 02:16:18;;;;;;;5.25;1.08;;;;;;;;;;5039329;28;20032;-81
2023/10/26 02:19:04;;;;;;;4.32;1.30;;;;;;;;;;5039937;28;20447;-80
2023/10/26 02:21:49;;;;;;;4.10;1.20;;;;;;;;;;5040223;28;20369;-80
2023/10/26 02:24:33;;;;;;;6.90;3.63;;;;;;;;;;5048736;28;20523;-79
2023/10/26 02:27:18;;;;;;;6.28;1.88;;;;;;;;;;5048665;28;20036;-80
2023/10/26 02:30:04;;;;;;;5.50;1.63;;;;;;;;;;5039667;28;20380;-79
2023/10/26 02:32:49;;;;;;;8.13;2.10;;;;;;;;;;5039959;28;20032;-81
2023/10/26 02:35:37;;;;;;;14.77;3.83;;;;;;;;;;5048572;28;20044;-79
2023/10/26 02:38:22;;;;;;;12.70;6.05;;;;;;;;;;5056144;28;20047;-81
2023/10/26 02:41:07;;;;;;;13.43;4.35;;;;;;;;;;5049984;28;20475;-81
2023/10/26 02:43:53;;;;;;;7.40;3.50;;;;;;;;;;5055039;28;20047;-82
2023/10/26 02:46:38;;;;;;;6.65;2.90;;;;;;;;;;5047713;28;20369;-79
2023/10/26 02:49:23;;;;;;;10.18;2.65;;;;;;;;;;5038947;28;20381;-80
2023/10/26 02:52:08;;;;;;;7.07;2.70;;;;;;;;;;5040137;28;20495;-80
2023/10/26 02:54:54;;;;;;;7.68;2.70;;;;;;;;;;5054204;28;20471;-79
2023/10/26 02:57:40;;;;;;;9.88;3.70;;;;;;;;;;5048617;28;20048;-79
2023/10/26 03:00:25;;;;;;;7.53;3.33;;;;;;;;;;5022972;28;20052;-83
2023/10/26 03:03:10;;;;;;;8.38;3.63;;;;;;;;;;5028376;28;20374;-82
2023/10/26 03:05:57;;;;;;;10.88;2.60;;;;;;;;;;5029879;28;20025;-82
2023/10/26 03:08:42;;;;;;;8.02;2.78;;;;;;;;;;5037180;28;20487;-80
2023/10/26 03:11:28;;;;;;;8.48;2.70;;;;;;;;;;5037960;28;20444;-81
2023/10/26 03:14:13;;;;;;;6.13;2.67;;;;;;;;;;5024550;28;20044;-80
2023/10/26 03:16:58;;;;;;;10.38;2.92;;;;;;;;;;5039467;28;20373;-80
2023/10/26 03:19:44;;;;;;;18.77;5.72;;;;;;;;;;5038598;28;20040;-81
2023/10/26 03:22:29;;;;;;;7.13;3.08;;;;;;;;;;5030843;28;20028;-80
2023/10/26 03:25:15;;;;;;;17.15;3.95;;;;;;;;;;5038850;28;20049;-81
2023/10/26 03:28:00;;;;;;;11.90;3.83;;;;;;;;;;5015106;28;20388;-81
2023/10/26 03:30:45;;;;;;;13.52;3.75;;;;;;;;;;5036535;28;20380;-81
2023/10/26 03:33:30;;;;;;;9.98;3.38;;;;;;;;;;5026951;28;20396;-82
2023/10/26 03:36:17;;;;;;;11.48;3.40;;;;;;;;;;5028701;28;20472;-83
2023/10/26 03:39:03;;;;;;;7.75;3.15;;;;;;;;;;5028018;28;20063;-79
2023/10/26 03:41:48;;;;;;;11.98;3.00;;;;;;;;;;5043146;28;20033;-80
2023/10/26 03:44:33;;;;;;;8.40;3.20;;;;;;;;;;5042575;28;20051;-80
2023/10/26 03:47:18;;;;;;;9.32;3.88;;;;;;;;;;5044104;28;20358;-78
2023/10/26 03:50:04;;;;;;;10.27;3.30;;;;;;;;;;5028372;28;20040;-79
2023/10/26 03:52:49;;;;;;;11.68;3.25;;;;;;;;;;5028823;28;20040;-80
2023/10/26 03:55:36;;;;;;;8.25;3.47;;;;;;;;;;5029844;28;20043;-81
2023/10/26 03:58:20;;;;;;;12.90;3.25;;;;;;;;;;5043400;28;20438;-80
2023/10/26 04:01:05;;;;;;;9.55;3.33;;;;;;;;;;5038267;28;20045;-82
2023/10/26 04:03:50;;;;;;;17.13;3.60;;;;;;;;;;5038089;28;20440;-81
2023/10/26 04:06:34;;;;;;;15.85;3.95;;;;;;;;;;5029003;28;20055;-82
2023/10/26 04:09:19;;;;;;;17.10;3.97;;;;;;;;;;5044752;28;20044;-80
2023/10/26 04:12:05;;;;;;;10.00;3.53;;;;;;;;;;5044149;28;20472;-80
2023/10/26 04:14:50;;;;;;;13.10;3.67;;;;;;;;;;5043088;28;20407;-79
2023/10/26 04:17:35;;;;;;;13.57;5.15;;;;;;;;;;5044172;28;20059;-79
2023/10/26 04:20:22;;;;;;;19.85;7.88;;;;;;;;;;5044635;28;20055;-79
2023/10/26 04:23:07;;;;;;;22.40;6.60;;;;;;;;;;5022250;28;20396;-80
2023/10/26 04:25:52;;;;;;;19.20;6.20;;;;;;;;;;5028555;28;20412;-81
2023/10/26 04:28:37;;;;;;;16.52;5.72;;;;;;;;;;5036246;28;20029;-80
2023/10/26 04:31:23;;;;;;;13.70;4.80;;;;;;;;;;5047034;28;20396;-82
2023/10/26 04:34:08;;;;;;;14.35;5.15;;;;;;;;;;5046873;28;20055;-80
2023/10/26 04:36:53;;;;;;;10.90;4.22;;;;;;;;;;5046293;28;20068;-80
2023/10/26 04:39:43;;;;;;;13.77;4.90;;;;;;;;;;5040137;28;20479;-80
2023/10/26 04:42:28;;;;;;;10.40;4.30;;;;;;;;;;5041289;28;20492;-82
2023/10/26 04:45:13;;;;;;;25.02;5.85;;;;;;;;;;5046036;28;20454;-80
2023/10/26 04:47:58;;;;;;;13.05;5.18;;;;;;;;;;5040413;28;20044;-80
2023/10/26 04:50:46;;;;;;;19.70;6.25;;;;;;;;;;5046140;28;20037;-79
2023/10/26 04:53:32;;;;;;;13.50;5.72;;;;;;;;;;5047176;28;20154;-79
2023/10/26 04:56:17;;;;;;;15.82;5.13;;;;;;;;;;5041016;28;20384;-79
2023/10/26 04:59:03;;;;;;;15.00;6.30;;;;;;;;;;5048189;28;20044;-82
2023/10/26 05:01:48;;;;;;;15.10;5.43;;;;;;;;;;5056662;28;20043;-82
2023/10/26 05:04:32;;;;;;;19.52;5.53;;;;;;;;;;5050109;28;20044;-80
2023/10/26 05:07:17;;;;;;;20.50;6.22;;;;;;;;;;5050012;28;20384;-84
2023/10/26 05:10:05;;;;;;;18.42;6.28;;;;;;;;;;5057781;28;20052;-78
2023/10/26 05:12:49;;;;;;;10.93;5.50;;;;;;;;;;5050913;28;20029;-79
2023/10/26 05:15:34;;;;;;;12.45;6.10;;;;;;;;;;5057127;28;20044;-80
2023/10/26 05:18:19;;;;;;;17.33;6.93;;;;;;;;;;5050973;28;20049;-78
2023/10/26 05:21:04;;;;;;;16.67;7.80;;;;;;;;;;5056752;28;20436;-81
2023/10/26 05:23:50;;;;;;;14.45;7.57;;;;;;;;;;5055606;28;20047;-83
2023/10/26 05:26:34;;;;;;;21.27;7.20;;;;;;;;;;5056817;28;20119;-79
2023/10/26 05:29:21;;;;;;;19.05;7.82;;;;;;;;;;5056092;28;20515;-84
2023/10/26 05:32:07;;;;;;;22.52;8.85;;;;;;;;;;5027343;28;20036;-87
2023/10/26 05:34:53;;;;;;;18.98;7.70;;;;;;;;;;5027378;28;20051;-84
2023/10/26 05:37:38;;;;;;;21.35;7.60;;;;;;;;;;5027161;28;20029;-86
2023/10/26 05:40:24;;;;;;;21.42;7.10;;;;;;;;;;5027069;28;20056;-84
2023/10/26 05:43:10;;;;;;;20.50;5.97;;;;;;;;;;5027029;28;20040;-84
2023/10/26 05:46:01;;;;;;;13.98;6.10;;;;;;;;;;5041626;28;21813;-85
2023/10/26 05:48:46;;;;;;;16.95;5.80;;;;;;;;;;5040640;28;20506;-86
2023/10/26 05:51:31;;;;;;;15.45;5.75;;;;;;;;;;5027062;28;20047;-85
2023/10/26 05:54:16;;;;;;;13.50;5.50;;;;;;;;;;5040567;28;20055;-85
2023/10/26 05:57:02;;;;;;;15.15;5.20;;;;;;;;;;5054662;28;20484;-84
2023/10/26 05:59:47;;;;;;;10.45;5.20;;;;;;;;;;5029199;28;20051;-86
2023/10/26 06:02:33;;;;;;;15.75;6.10;;;;;;;;;;5040612;28;20040;-84
2023/10/26 06:05:18;;;;;;;12.25;5.38;;;;;;;;;;5027708;28;20036;-87
2023/10/26 06:08:03;;;;;;;17.25;5.25;;;;;;;;;;5027758;28;20041;-84
2023/10/26 06:10:49;;;;;;;15.55;6.35;;;;;;;;;;5041016;28;20051;-83
2023/10/26 06:13:34;;;;;;;15.38;5.82;;;;;;;;;;5026960;28;20037;-85
2023/10/26 06:16:20;;;;;;;18.58;6.38;;;;;;;;;;5035014;28;20047;-83
2023/10/26 06:19:05;;;;;;;15.60;5.90;;;;;;;;;;5027600;28;20059;-83
2023/10/26 06:21:51;;;;;;;12.68;5.75;;;;;;;;;;5026750;28;20040;-83
2023/10/26 06:24:36;;;;;;;11.13;5.95;;;;;;;;;;5026874;28;20039;-83
2023/10/26 06:27:21;;;;;;;13.80;6.00;;;;;;;;;;5027641;28;20032;-86
2023/10/26 06:30:06;;;;;;;10.27;5.35;;;;;;;;;;5040655;28;21637;-87
2023/10/26 06:32:52;;;;;;;13.88;5.65;;;;;;;;;;5040794;28;20045;-84
2023/10/26 06:35:37;;;;;;;14.77;5.63;;;;;;;;;;5052766;28;20048;-84
2023/10/26 06:38:23;;;;;;;20.98;7.10;;;;;;;;;;5051008;28;20067;-82
2023/10/26 06:41:08;;;;;;;20.50;7.25;;;;;;;;;;5043726;28;20388;-87
2023/10/26 06:43:55;;;;;;;17.88;6.95;;;;;;;;;;5041178;28;20474;-85
2023/10/26 06:46:40;;;;;;;16.98;6.65;;;;;;;;;;5040549;28;20059;-87
2023/10/26 06:49:25;;;;;;;15.57;7.07;;;;;;;;;;5026659;28;20036;-84
2023/10/26 06:52:10;;;;;;;14.55;6.85;;;;;;;;;;5026924;28;20047;-82
2023/10/26 06:54:55;;;;;;;14.27;4.90;;;;;;;;;;5040150;28;20047;-85
2023/10/26 06:57:41;;;;;;;12.68;5.82;;;;;;;;;;5027092;28;20042;-86
2023/10/26 07:00:26;;;;;;;12.82;5.20;;;;;;;;;;5010447;28;20041;-83
2023/10/26 07:03:12;;;;;;;17.92;5.90;;;;;;;;;;5029866;28;20442;-83
2023/10/26 07:06:00;;;;;;;15.13;8.30;;;;;;;;;;5032385;28;20037;-82
2023/10/26 07:08:45;;;;;;;14.57;6.28;;;;;;;;;;5034719;28;20041;-83
2023/10/26 07:11:31;;;;;;;17.08;6.88;;;;;;;;;;5013438;28;20063;-84
2023/10/26 07:14:16;;;;;;;15.77;6.35;;;;;;;;;;5010994;28;20045;-85
2023/10/26 07:17:02;;;;;;;13.57;6.00;;;;;;;;;;5017323;28;20400;-85
2023/10/26 07:19:47;;;;;;;11.88;4.95;;;;;;;;;;5029265;28;20498;-83
2023/10/26 07:22:32;;;;;;;9.18;4.00;;;;;;;;;;5016251;28;20475;-82
2023/10/26 07:25:17;;;;;;;8.88;3.83;;;;;;;;;;5030430;28;20374;-88
2023/10/26 07:28:03;;;;;;;12.45;4.93;;;;;;;;;;5015050;28;20370;-82
2023/10/26 07:30:50;;;;;;;11.55;4.93;;;;;;;;;;5030136;28;20044;-86
2023/10/26 07:33:35;;;;;;;12.88;4.55;;;;;;;;;;5015522;28;20384;-82
2023/10/26 07:36:20;;;;;;;14.27;4.40;;;;;;;;;;5029381;28;20037;-84
2023/10/26 07:39:05;;;;;;;11.10;4.60;;;;;;;;;;5028679;28;20079;-82
2023/10/26 07:41:50;;;;;;;10.52;3.42;;;;;;;;;;5043280;28;20036;-83
2023/10/26 07:44:35;;;;;;;7.90;3.40;;;;;;;;;;5029569;28;20040;-84
2023/10/26 07:47:21;;;;;;;8.48;3.30;;;;;;;;;;5037767;28;20025;-82
2023/10/26 07:50:06;;;;;;;9.45;3.22;;;;;;;;;;5036827;28;20033;-83
2023/10/26 07:52:50;;;;;;;6.72;2.92;;;;;;;;;;5024013;28;20365;-86
2023/10/26 07:55:36;;;;;;;8.57;2.50;;;;;;;;;;5024101;28;20460;-83
2023/10/26 07:58:20;;;;;;;8.02;2.60;;;;;;;;;;5017265;28;20037;-84
2023/10/26 08:01:07;;;;;;;9.02;2.67;;;;;;;;;;5039157;28;20037;-82
2023/10/26 08:03:52;;;;;;;7.10;2.55;;;;;;;;;;5039249;28;20357;-83
2023/10/26 08:06:37;;;;;;;9.43;3.13;;;;;;;;;;5028524;28;20044;-85
2023/10/26 08:09:22;;;;;;;5.28;2.65;;;;;;;;;;5028768;28;20376;-85
2023/10/26 08:12:06;;;;;;;10.65;2.75;;;;;;;;;;5058569;28;20029;-83
2023/10/26 08:14:55;;;;;;;13.23;3.28;;;;;;;;;;5022327;28;20493;-84
2023/10/26 08:17:40;;;;;;;9.07;3.50;;;;;;;;;;5041793;28;20052;-82
2023/10/26 08:20:25;;;;;;;7.32;2.70;;;;;;;;;;5041954;28;20103;-81
2023/10/26 08:23:09;;;;;;;7.15;2.80;;;;;;;;;;5043303;28;20028;-81
2023/10/26 08:25:55;;;;;;;12.25;2.78;;;;;;;;;;5051169;28;20456;-82
2023/10/26 08:28:40;;;;;;;12.52;3.13;;;;;;;;;;5051899;28;20033;-83
2023/10/26 08:31:25;;;;;;;13.50;3.28;;;;;;;;;;5036645;28;20036;-80
2023/10/26 08:34:10;;;;;;;12.75;4.43;;;;;;;;;;5043481;28;20383;-80
2023/10/26 08:36:55;;;;;;;24.73;11.40;;;;;;;;;;5051717;28;20036;-81
2023/10/26 08:39:40;;;;;;;21.52;11.05;;;;;;;;;;5058224;28;20479;-83
2023/10/26 08:42:26;;;;;;;24.25;14.18;;;;;;;;;;5051396;28;20376;-80
2023/10/26 08:45:12;;;;;;;33.28;16.27;;;;;;;;;;5057970;28;20486;-80
2023/10/26 08:48:00;;;;;;;31.17;16.80;;;;;;;;;;5058176;28;20483;-81
2023/10/26 08:50:45;;;;;;;23.00;13.23;;;;;;;;;;5058387;28;20044;-79
2023/10/26 08:53:31;;;;;;;21.95;11.63;;;;;;;;;;5051332;28;20043;-79
2023/10/26 08:56:17;;;;;;;27.23;9.15;;;;;;;;;;5051540;28;20435;-80
2023/10/26 08:59:03;;;;;;;17.83;8.57;;;;;;;;;;5035962;28;20075;-82
2023/10/26 09:01:48;;;;;;;13.15;6.75;;;;;;;;;;5051543;28;20487;-79
2023/10/26 09:04:34;;;;;;;15.48;5.80;;;;;;;;;;5056562;28;20033;-83
2023/10/26 09:07:25;;;;;;;18.70;7.05;;;;;;;;;;5060581;28;20040;-82
2023/10/26 09:10:09;;;;;;;12.57;5.70;;;;;;;;;;5065268;28;20395;-83
2023/10/26 09:13:02;;;;;;;12.43;3.40;;;;;;;;;;5060741;28;20048;-82
2023/10/26 09:15:48;;;;;;;7.55;3.05;;;;;;;;;;5058144;28;20032;-81
2023/10/26 09:18:33;;;;;;;8.32;3.10;;;;;;;;;;5051264;28;20381;-82
2023/10/26 09:21:19;;;;;;;8.73;3.55;;;;;;;;;;5050762;28;20029;-81
2023/10/26 09:24:16;;;;;;;4.93;2.50;;;;;;;;;;5057549;28;20048;-81
2023/10/26 09:27:01;;;;;;;5.53;2.20;;;;;;;;;;5056901;28;20032;-81
2023/10/26 09:29:47;;;;;;;6.72;2.13;;;;;;;;;;5057795;28;20045;-82
2023/10/26 09:32:33;;;;;;;7.15;2.10;;;;;;;;;;5050523;28;20037;-81
2023/10/26 09:35:28;;;;;;;4.10;1.67;;;;;;;;;;5041761;28;20377;-79
2023/10/26 09:38:12;;;;;;;;;;;;;;;;;;5051236;28;20480;-81
2023/10/26 09:40:57;;;;;;;6.90;2.67;;;;;;;;;;5056340;28;20263;-82
2023/10/26 09:43:43;;;;;;;6.75;2.05;;;;;;;;;;5050345;28;20459;-80
2023/10/26 09:46:28;;;;;;;8.10;2.40;;;;;;;;;;5057318;28;20449;-79
2023/10/26 09:49:13;;;;;;;4.03;1.67;;;;;;;;;;5041118;28;20048;-83
2023/10/26 09:51:58;;;;;;;5.28;1.60;;;;;;;;;;5056657;28;20024;-80
2023/10/26 09:54:43;;;;;;;2.88;1.20;;;;;;;;;;5056284;28;20037;-80
2023/10/26 09:57:33;;;;;;;4.20;1.20;;;;;;;;;;5057005;28;20452;-81
2023/10/26 10:00:27;;;;;;;3.38;1.27;;;;;;;;;;5050979;28;20060;-82
2023/10/26 10:03:13;;;;;;;2.78;1.45;;;;;;;;;;5050438;28;20033;-81
2023/10/26 10:05:58;;;;;;;4.38;1.15;;;;;;;;;;5040913;28;20456;-81
2023/10/26 10:08:58;;;;;;;5.82;2.45;;;;;;;;;;5050164;28;20036;-80
2023/10/26 10:11:44;;;;;;;7.88;1.60;;;;;;;;;;5056651;28;20032;-80
2023/10/26 10:14:48;;;;;;;4.30;1.50;;;;;;;;;;5057031;28;20041;-82
2023/10/26 10:17:46;;;;;;;8.57;1.35;;;;;;;;;;5056321;28;20041;-82
2023/10/26 10:20:32;;;;;;;4.57;1.20;;;;;;;;;;5056302;28;20045;-82
2023/10/26 10:23:28;;;;;;;3.15;1.00;;;;;;;;;;5049525;28;20044;-83
2023/10/26 10:26:13;;;;;;;3.42;1.20;;;;;;;;;;5051553;28;20028;-83
2023/10/26 10:29:16;;;;;;;2.78;1.20;;;;;;;;;;5064017;28;20352;-82
2023/10/26 10:32:02;;;;;;;2.78;0.90;;;;;;;;;;5058149;28;20373;-84
2023/10/26 10:34:48;;;;;;;17.17;1.17;;;;;;;;;;5033825;28;20448;-82
2023/10/26 10:37:34;;;;;;;6.28;1.20;;;;;;;;;;5056078;28;20388;-85
2023/10/26 10:40:20;;;;;;;5.20;0.93;;;;;;;;;;5054113;28;20041;-82
2023/10/26 10:43:06;;;;;;;3.05;0.93;;;;;;;;;;5054164;28;20456;-87
2023/10/26 10:45:51;;;;;;;3.03;0.88;;;;;;;;;;5043558;28;20036;-82
2023/10/26 10:48:56;;;;;;;1.50;0.70;;;;;;;;;;5037805;28;20035;-84
2023/10/26 10:51:41;;;;;;;4.43;0.90;;;;;;;;;;5050808;28;20036;-83
2023/10/26 10:54:26;;;;;;;2.03;0.82;;;;;;;;;;5051077;28;20376;-81
2023/10/26 10:57:12;;;;;;;2.50;0.80;;;;;;;;;;5032286;28;20040;-83
2023/10/26 10:59:57;;;;;;;3.40;1.05;;;;;;;;;;5054897;28;20357;-81
2023/10/26 11:02:47;;;;;;;2.28;1.10;;;;;;;;;;5061167;28;20345;-82
2023/10/26 11:05:41;;;;;;;3.75;1.10;;;;;;;;;;5050050;28;20032;-83
2023/10/26 11:08:26;;;;;;;6.32;1.00;;;;;;;;;;5022020;28;20041;-84
2023/10/26 11:11:27;;;;;;;2.47;1.15;;;;;;;;;;5040971;28;20041;-86
2023/10/26 11:14:12;;;;;;;2.55;0.93;;;;;;;;;;5068176;28;20032;-81
2023/10/26 11:16:58;;;;;;;5.90;1.30;;;;;;;;;;5040180;28;20448;-82
2023/10/26 11:19:43;;;;;;;2.53;1.00;;;;;;;;;;5054267;28;20044;-80
2023/10/26 11:22:28;;;;;;;5.40;1.70;;;;;;;;;;5055536;28;20365;-81
2023/10/26 11:25:23;;;;;;;4.55;1.80;;;;;;;;;;5056223;28;20044;-83
2023/10/26 11:28:08;;;;;;;;;;;;;;;;;;5055443;28;20040;-82
2023/10/26 11:30:59;;;;;;;9.32;3.53;;;;;;;;;;5033990;28;20266;-84
2023/10/26 11:33:43;;;;;;;23.35;7.85;;;;;;;;;;5049046;28;20095;-83
2023/10/26 11:36:29;;;;;;;8.32;2.88;;;;;;;;;;5049537;28;20025;-84
2023/10/26 11:39:14;;;;;;;4.82;1.67;;;;;;;;;;5056150;28;20337;-83
2023/10/26 11:41:59;;;;;;;9.40;3.03;;;;;;;;;;5036960;28;20468;-82
2023/10/26 11:44:43;;;;;;;9.23;3.20;;;;;;;;;;5060080;28;20033;-83
2023/10/26 11:47:42;;;;;;;14.88;4.00;;;;;;;;;;5046270;28;20471;-83
2023/10/26 11:50:31;;;;;;;6.65;3.88;;;;;;;;;;5056983;28;20377;-84
2023/10/26 11:53:16;;;;;;;12.30;6.95;;;;;;;;;;5056078;28;20029;-82
2023/10/26 11:56:02;;;;;;;5.60;2.78;;;;;;;;;;5061008;28;20392;-83
2023/10/26 11:58:47;;;;;;;4.45;2.13;;;;;;;;;;5040935;28;20036;-84
2023/10/26 12:01:32;;;;;;;3.08;1.10;;;;;;;;;;5044020;28;20036;-84
2023/10/26 12:04:18;;;;;;;2.92;1.17;;;;;;;;;;5058500;28;20392;-84
2023/10/26 12:07:02;;;;;;;2.00;0.85;;;;;;;;;;5052303;28;20044;-82
2023/10/26 12:09:47;;;;;;;2.40;1.00;;;;;;;;;;5051453;28;20033;-83
2023/10/26 12:12:32;;;;;;;2.47;1.23;;;;;;;;;;5051105;28;20444;-85
2023/10/26 12:15:20;;;;;;;1.15;0.70;;;;;;;;;;5050410;28;20036;-84
2023/10/26 12:18:06;;;;;;;2.10;0.90;;;;;;;;;;5056364;28;20029;-84
2023/10/26 12:20:51;;;;;;;2.47;0.80;;;;;;;;;;5041905;28;20440;-83
2023/10/26 12:23:36;;;;;;;3.40;1.10;;;;;;;;;;5043797;28;20028;-85
2023/10/26 12:26:21;;;;;;;5.28;0.90;;;;;;;;;;5059040;28;20041;-83
2023/10/26 12:29:07;;;;;;;1.75;0.95;;;;;;;;;;5057889;28;20459;-83
2023/10/26 12:31:53;;;;;;;1.85;0.85;;;;;;;;;;5051866;28;20380;-82
2023/10/26 12:34:38;;;;;;;2.08;1.17;;;;;;;;;;5059437;28;20463;-85
2023/10/26 12:37:24;;;;;;;1.50;0.80;;;;;;;;;;5051679;28;20037;-83
2023/10/26 12:40:09;;;;;;;2.83;1.10;;;;;;;;;;5058803;28;20377;-82
2023/10/26 12:42:55;;;;;;;2.95;0.80;;;;;;;;;;5059007;28;20464;-82
2023/10/26 12:45:40;;;;;;;3.65;0.88;;;;;;;;;;5051539;28;20364;-83
2023/10/26 12:48:25;;;;;;;2.72;0.80;;;;;;;;;;5042658;28;20041;-83
2023/10/26 12:51:12;;;;;;;2.25;0.80;;;;;;;;;;5058728;28;20452;-85
2023/10/26 12:53:57;;;;;;;1.90;1.00;;;;;;;;;;5037545;28;20373;-83
2023/10/26 12:56:42;;;;;;;6.63;1.38;;;;;;;;;;5064719;28;20040;-83
2023/10/26 12:59:27;;;;;;;3.50;1.05;;;;;;;;;;5041239;28;20444;-83
2023/10/26 13:02:12;;;;;;;2.20;0.95;;;;;;;;;;5060089;28;20444;-85
2023/10/26 13:04:57;;;;;;;3.83;1.20;;;;;;;;;;5044366;28;20033;-82
2023/10/26 13:07:42;;;;;;;3.30;1.10;;;;;;;;;;5052975;28;20024;-82
2023/10/26 13:10:30;;;;;;;1.95;1.00;;;;;;;;;;5061460;28;20032;-84
2023/10/26 13:13:15;;;;;;;2.47;1.10;;;;;;;;;;5048629;28;20044;-83
2023/10/26 13:16:00;;;;;;;4.50;1.20;;;;;;;;;;5044336;28;20045;-84
2023/10/26 13:18:45;;;;;;;7.07;1.98;;;;;;;;;;5043538;28;20366;-86
2023/10/26 13:21:31;;;;;;;2.53;1.52;;;;;;;;;;5058054;28;20040;-83
2023/10/26 13:24:16;;;;;;;2.78;1.70;;;;;;;;;;5050718;28;20032;-84
2023/10/26 13:27:02;;;;;;;1.88;1.10;;;;;;;;;;5034812;28;20040;-83
2023/10/26 13:29:48;;;;;;;4.70;1.55;;;;;;;;;;5042279;28;20356;-82
2023/10/26 13:32:33;;;;;;;1.65;1.00;;;;;;;;;;5041678;28;20032;-81
2023/10/26 13:35:18;;;;;;;4.20;1.05;;;;;;;;;;5050505;28;20405;-83
2023/10/26 13:38:12;;;;;;;3.58;1.10;;;;;;;;;;5035409;28;20364;-83
2023/10/26 13:40:57;;;;;;;4.10;0.93;;;;;;;;;;5039989;28;20040;-82
2023/10/26 13:43:43;;;;;;;2.65;1.10;;;;;;;;;;5026635;28;20029;-82
2023/10/26 13:46:28;;;;;;;2.75;0.80;;;;;;;;;;5039527;28;20040;-83
2023/10/26 13:49:13;;;;;;;5.07;1.50;;;;;;;;;;5040881;28;20025;-82
2023/10/26 13:51:58;;;;;;;6.47;2.63;;;;;;;;;;5051087;28;20389;-83
2023/10/26 13:54:43;;;;;;;6.60;1.48;;;;;;;;;;5057862;28;20495;-86
2023/10/26 13:57:28;;;;;;;3.80;1.77;;;;;;;;;;5063602;28;20447;-84
2023/10/26 14:00:13;;;;;;;4.85;1.52;;;;;;;;;;5022573;28;20053;-85
2023/10/26 14:03:00;;;;;;;5.72;1.90;;;;;;;;;;5040708;28;20484;-81
2023/10/26 14:05:49;;;;;;;9.98;1.90;;;;;;;;;;5049822;28;20045;-82
2023/10/26 14:08:34;;;;;;;10.57;2.88;;;;;;;;;;5038898;28;20432;-83
2023/10/26 14:11:18;;;;;;;7.20;3.00;;;;;;;;;;5040252;28;20394;-83
2023/10/26 14:14:03;;;;;;;9.32;2.88;;;;;;;;;;5055283;28;20040;-85
2023/10/26 14:16:48;;;;;;;6.93;2.13;;;;;;;;;;5052710;28;20331;-84
2023/10/26 14:19:33;;;;;;;8.80;1.90;;;;;;;;;;5050448;28;20365;-83
2023/10/26 14:22:18;;;;;;;4.57;2.10;;;;;;;;;;5050031;28;20037;-85
2023/10/26 14:25:05;;;;;;;4.28;1.80;;;;;;;;;;5041151;28;20448;-82
2023/10/26 14:27:50;;;;;;;5.78;1.45;;;;;;;;;;5044339;28;20456;-83
2023/10/26 14:30:35;;;;;;;5.10;1.67;;;;;;;;;;5058961;28;20036;-82
2023/10/26 14:33:20;;;;;;;4.93;2.70;;;;;;;;;;5052544;28;20032;-86
2023/10/26 14:36:06;;;;;;;6.80;4.40;;;;;;;;;;5042643;28;20048;-85
2023/10/26 14:38:51;;;;;;;13.60;7.05;;;;;;;;;;5056840;28;20028;-85
2023/10/26 14:41:37;;;;;;;13.63;7.65;;;;;;;;;;5034804;28;20150;-84
2023/10/26 14:44:22;;;;;;;16.77;8.43;;;;;;;;;;5035875;28;20507;-85
2023/10/26 14:47:07;;;;;;;15.30;9.82;;;;;;;;;;5042253;28;20032;-82
2023/10/26 14:49:52;;;;;;;15.02;9.13;;;;;;;;;;5059356;28;20043;-84
2023/10/26 14:52:38;;;;;;;7.88;3.70;;;;;;;;;;5055352;28;21875;-79
2023/10/26 14:55:23;;;;;;;7.05;3.10;;;;;;;;;;5052106;28;20044;-81
2023/10/26 14:58:09;;;;;;;5.95;3.20;;;;;;;;;;5057521;28;20380;-82
2023/10/26 15:00:55;;;;;;;5.47;2.22;;;;;;;;;;5026158;28;20048;-84
2023/10/26 15:03:42;;;;;;;3.45;1.60;;;;;;;;;;5029584;28;20350;-86
2023/10/26 15:06:27;;;;;;;4.15;1.50;;;;;;;;;;5021254;28;20041;-83
2023/10/26 15:09:12;;;;;;;6.15;2.20;;;;;;;;;;5029245;28;20029;-83
2023/10/26 15:11:56;;;;;;;;;;;;;;;;;;5036624;28;20365;-83
2023/10/26 15:14:41;;;;;;;8.05;1.83;;;;;;;;;;5027665;28;19932;-81
2023/10/26 15:17:26;;;;;;;5.10;1.92;;;;;;;;;;5029382;28;20029;-83
2023/10/26 15:20:11;;;;;;;;;;;;;;;;;;5028960;28;20578;-83
2023/10/26 15:22:56;;;;;;;13.68;4.95;;;;;;;;;;5020201;28;19920;-80
2023/10/26 15:25:42;;;;;;;11.75;4.65;;;;;;;;;;5028851;28;20468;-81
2023/10/26 15:28:27;;;;;;;14.70;5.43;;;;;;;;;;5035166;28;20475;-81
2023/10/26 15:31:12;;;;;;;16.02;7.70;;;;;;;;;;5019972;28;20035;-82
2023/10/26 15:33:57;;;;;;;18.58;7.50;;;;;;;;;;5020119;28;20471;-82
2023/10/26 15:36:42;;;;;;;20.15;7.57;;;;;;;;;;5029502;28;20056;-84
2023/10/26 15:39:27;;;;;;;17.50;7.63;;;;;;;;;;5029218;28;20036;-83
2023/10/26 15:42:15;;;;;;;18.00;7.25;;;;;;;;;;5020764;28;20385;-83
2023/10/26 15:44:59;;;;;;;26.17;11.82;;;;;;;;;;5037168;28;20040;-82
2023/10/26 15:47:45;;;;;;;29.60;11.73;;;;;;;;;;5035991;28;20048;-82
2023/10/26 15:50:31;;;;;;;25.05;10.23;;;;;;;;;;5037649;28;20060;-82
2023/10/26 15:53:18;;;;;;;22.65;9.10;;;;;;;;;;5029144;28;20048;-81
2023/10/26 15:56:04;;;;;;;25.25;10.00;;;;;;;;;;5020219;28;20392;-83
2023/10/26 15:58:52;;;;;;;20.65;9.70;;;;;;;;;;5023350;28;20494;-84
2023/10/26 16:01:37;;;;;;;17.02;8.77;;;;;;;;;;5048562;28;20502;-82
2023/10/26 16:04:22;;;;;;;24.67;8.27;;;;;;;;;;5055406;28;20045;-80
2023/10/26 16:07:07;;;;;;;21.98;9.05;;;;;;;;;;5054898;28;20059;-86
2023/10/26 16:09:54;;;;;;;25.33;9.02;;;;;;;;;;5048199;28;20483;-84
2023/10/26 16:12:39;;;;;;;21.40;7.45;;;;;;;;;;5033629;28;20041;-81
2023/10/26 16:15:24;;;;;;;21.75;8.88;;;;;;;;;;5049693;28;20061;-81
2023/10/26 16:18:10;;;;;;;14.90;6.18;;;;;;;;;;5047651;28;20107;-80
2023/10/26 16:20:55;;;;;;;20.88;5.95;;;;;;;;;;5047412;28;20391;-83
2023/10/26 16:23:41;;;;;;;13.02;6.03;;;;;;;;;;5046365;28;20045;-83
2023/10/26 16:26:26;;;;;;;12.48;5.53;;;;;;;;;;5035872;28;20392;-81
2023/10/26 16:29:11;;;;;;;13.70;6.20;;;;;;;;;;5052579;28;20049;-84